Time;durP1;ratioP1;P1;durP2;ratioP2;P2;SDS_P1;SDS_P2;PMS_P1;PMS_P2;Temp;Humidity;BMP_temperature;BMP_pressure;BME280_temperature;BME280_humidity;BME280_pressure;Samples;Min_cycle;Max_cycle;Signal;HPM_P1;HPM_P2
2023/08/06 00:01:34;;;;;;;8.77;4.68;;;14.00;99.90;;;;;;4229178;28;20093;-79
2023/08/06 00:03:36;;;;;;;5.85;4.38;;;14.20;99.90;;;;;;4228750;28;20082;-79
2023/08/06 00:05:36;;;;;;;8.77;4.18;;;14.20;99.90;;;;;;4229384;28;20527;-79
2023/08/06 00:07:37;;;;;;;6.53;4.30;;;14.20;99.90;;;;;;4230534;28;20046;-79
2023/08/06 00:09:38;;;;;;;6.63;4.38;;;14.40;99.90;;;;;;4229374;28;20051;-79
2023/08/06 00:11:38;;;;;;;13.07;5.38;;;14.20;99.90;;;;;;4229108;28;20051;-79
2023/08/06 00:13:39;;;;;;;9.30;4.00;;;14.10;99.90;;;;;;4229896;28;20472;-79
2023/08/06 00:15:40;;;;;;;6.03;4.20;;;14.40;99.90;;;;;;4229265;28;20039;-79
2023/08/06 00:17:40;;;;;;;6.93;4.20;;;14.10;99.90;;;;;;4229175;28;20039;-79
2023/08/06 00:19:41;;;;;;;6.82;4.32;;;14.20;99.90;;;;;;4229140;28;20471;-79
2023/08/06 00:21:42;;;;;;;7.07;4.30;;;14.20;99.90;;;;;;4228928;28;20535;-79
2023/08/06 00:23:42;;;;;;;7.18;4.45;;;14.10;99.90;;;;;;4229643;28;20054;-79
2023/08/06 00:25:43;;;;;;;10.63;4.68;;;14.20;99.90;;;;;;4229580;28;20055;-79
2023/08/06 00:27:44;;;;;;;7.18;4.13;;;14.10;99.90;;;;;;4242520;28;20036;-79
2023/08/06 00:29:45;;;;;;;10.52;4.53;;;13.90;99.90;;;;;;4243802;28;20096;-79
2023/08/06 00:31:46;;;;;;;7.93;4.63;;;14.10;99.90;;;;;;4231745;28;20036;-79
2023/08/06 00:33:46;;;;;;;8.10;4.30;;;14.10;99.90;;;;;;4230105;28;20047;-79
2023/08/06 00:35:47;;;;;;;6.57;4.03;;;14.10;99.90;;;;;;4230750;28;20071;-79
2023/08/06 00:37:48;;;;;;;7.65;4.53;;;14.10;99.90;;;;;;4230311;28;20172;-79
2023/08/06 00:39:48;;;;;;;8.50;4.18;;;14.10;99.90;;;;;;4230128;28;20043;-79
2023/08/06 00:41:49;;;;;;;8.05;4.40;;;13.30;99.90;;;;;;4233579;28;20093;-79
2023/08/06 00:43:50;;;;;;;8.32;4.35;;;14.00;99.90;;;;;;4232686;28;20126;-79
2023/08/06 00:45:51;;;;;;;6.57;4.32;;;14.10;99.90;;;;;;4232960;28;20040;-79
2023/08/06 00:47:52;;;;;;;5.75;3.90;;;14.10;99.90;;;;;;4233063;28;20047;-79
2023/08/06 00:49:53;;;;;;;6.78;4.00;;;14.10;99.90;;;;;;4242453;28;20122;-79
2023/08/06 00:51:56;;;;;;;10.40;5.22;;;14.10;99.90;;;;;;4214969;28;20087;-79
2023/08/06 00:53:56;;;;;;;8.70;4.53;;;14.00;99.90;;;;;;4231274;28;20126;-79
2023/08/06 00:55:58;;;;;;;8.85;4.07;;;14.10;99.90;;;;;;4233212;28;20058;-79
2023/08/06 00:57:59;;;;;;;8.27;4.93;;;14.00;99.90;;;;;;4233052;28;20480;-79
2023/08/06 01:00:00;;;;;;;9.63;4.72;;;14.10;99.90;;;;;;4233587;28;20475;-79
2023/08/06 01:02:02;;;;;;;6.85;4.65;;;14.00;99.90;;;;;;4233404;28;20039;-79
2023/08/06 01:04:02;;;;;;;7.60;4.85;;;14.10;99.90;;;;;;4232983;28;20047;-79
2023/08/06 01:06:04;;;;;;;6.68;4.65;;;14.10;99.90;;;;;;4232754;28;20032;-79
2023/08/06 01:08:22;;;;;;;9.75;4.93;;;14.00;99.90;;;;;;4231255;28;20051;-79
2023/08/06 01:10:39;;;;;;;11.05;4.70;;;14.00;99.90;;;;;;4233001;28;20051;-79
2023/08/06 01:13:07;;;;;;;8.02;4.68;;;14.00;99.90;;;;;;4231582;28;20137;-79
2023/08/06 01:15:18;;;;;;;6.93;4.77;;;14.00;99.90;;;;;;4231490;28;20561;-79
2023/08/06 01:17:20;;;;;;;11.90;4.80;;;14.00;99.90;;;;;;4214288;28;20579;-79
2023/08/06 01:19:21;;;;;;;6.95;4.47;;;14.00;99.90;;;;;;4231920;28;20078;-79
2023/08/06 01:21:22;;;;;;;7.32;4.82;;;13.90;99.90;;;;;;4231645;28;20054;-79
2023/08/06 01:23:23;;;;;;;8.10;5.00;;;14.30;99.90;;;;;;4231207;28;20055;-79
2023/08/06 01:25:35;;;;;;;16.30;6.05;;;14.10;99.90;;;;;;4231483;28;20048;-79
2023/08/06 01:27:54;;;;;;;12.20;5.53;;;14.10;99.90;;;;;;4231510;28;20039;-79
2023/08/06 01:30:05;;;;;;;7.75;4.88;;;14.30;99.90;;;;;;4214332;28;20408;-79
2023/08/06 01:32:10;;;;;;;6.90;4.65;;;14.10;99.90;;;;;;4230622;28;20043;-79
2023/08/06 01:34:18;;;;;;;12.00;4.88;;;14.20;99.90;;;;;;4231279;28;20515;-79
2023/08/06 01:36:20;;;;;;;9.88;5.57;;;14.10;99.90;;;;;;4214615;28;20469;-79
2023/08/06 01:38:21;;;;;;;10.75;5.03;;;14.10;99.90;;;;;;4230699;28;20543;-79
2023/08/06 01:40:22;;;;;;;9.85;5.63;;;14.00;99.90;;;;;;4231394;28;20055;-79
2023/08/06 01:42:22;;;;;;;10.25;5.68;;;14.00;99.90;;;;;;4230820;28;20055;-79
2023/08/06 01:44:23;;;;;;;7.30;5.32;;;14.00;99.90;;;;;;4232275;28;20055;-79
2023/08/06 01:46:24;;;;;;;9.05;5.50;;;14.00;99.90;;;;;;4230774;28;20153;-80
2023/08/06 01:48:24;;;;;;;14.68;5.50;;;14.10;99.90;;;;;;4232060;28;20122;-79
2023/08/06 01:50:25;;;;;;;12.73;5.88;;;14.00;99.90;;;;;;4214211;28;20044;-79
2023/08/06 01:52:26;;;;;;;9.45;5.70;;;14.10;99.90;;;;;;4229582;28;20082;-79
2023/08/06 01:54:27;;;;;;;12.25;6.32;;;14.00;99.90;;;;;;4232013;28;20495;-79
2023/08/06 01:56:28;;;;;;;11.23;6.60;;;14.00;99.90;;;;;;4232205;28;20050;-79
2023/08/06 01:58:28;;;;;;;10.88;6.13;;;14.00;99.90;;;;;;4230060;28;20074;-79
2023/08/06 02:00:29;;;;;;;12.38;6.88;;;14.00;99.90;;;;;;4214051;28;20480;-79
2023/08/06 02:02:30;;;;;;;12.38;6.47;;;14.10;99.90;;;;;;4231850;28;20109;-80
2023/08/06 02:04:30;;;;;;;10.07;6.50;;;14.10;99.90;;;;;;4213745;28;20048;-79
2023/08/06 02:06:31;;;;;;;10.77;6.95;;;14.10;99.90;;;;;;4231764;28;20050;-79
2023/08/06 02:08:32;;;;;;;10.60;5.93;;;14.10;99.90;;;;;;4213315;28;20051;-79
2023/08/06 02:10:33;;;;;;;9.98;6.72;;;14.10;99.90;;;;;;4230292;28;20055;-79
2023/08/06 02:12:33;;;;;;;8.10;6.05;;;14.10;99.90;;;;;;4229842;28;20090;-79
2023/08/06 02:14:34;;;;;;;11.52;7.00;;;14.00;99.90;;;;;;4230467;28;20467;-79
2023/08/06 02:16:35;;;;;;;13.55;7.18;;;14.10;99.90;;;;;;4231967;28;20462;-79
2023/08/06 02:18:36;;;;;;;14.63;7.20;;;14.10;99.90;;;;;;4230323;28;20039;-79
2023/08/06 02:20:36;;;;;;;9.75;6.72;;;14.10;99.90;;;;;;4230347;28;20044;-79
2023/08/06 02:22:37;;;;;;;9.73;6.57;;;14.10;99.90;;;;;;4231262;28;20499;-79
2023/08/06 02:24:39;;;;;;;11.50;6.65;;;14.20;99.90;;;;;;4230942;28;20050;-79
2023/08/06 02:26:39;;;;;;;10.73;6.68;;;13.90;99.90;;;;;;4231596;28;20043;-80
2023/08/06 02:28:40;;;;;;;13.00;7.55;;;14.10;99.90;;;;;;4229744;28;20135;-80
2023/08/06 02:30:50;;;;;;;13.45;6.47;;;14.00;99.90;;;;;;4230085;28;20423;-80
2023/08/06 02:32:51;;;;;;;11.65;6.60;;;14.00;99.90;;;;;;4231184;28;20083;-80
2023/08/06 02:34:51;;;;;;;10.35;6.45;;;14.00;99.90;;;;;;4230994;28;20585;-80
2023/08/06 02:36:52;;;;;;;11.98;7.75;;;14.10;99.90;;;;;;4231627;28;20048;-80
2023/08/06 02:38:52;;;;;;;9.20;6.88;;;14.10;99.90;;;;;;4231103;28;20079;-80
2023/08/06 02:40:53;;;;;;;14.05;7.47;;;14.10;99.90;;;;;;4230047;28;20133;-79
2023/08/06 02:42:54;;;;;;;10.68;6.82;;;14.20;99.90;;;;;;4230056;28;20430;-79
2023/08/06 02:44:55;;;;;;;13.82;6.65;;;13.90;99.90;;;;;;4231354;28;20047;-80
2023/08/06 02:46:55;;;;;;;15.75;7.95;;;14.20;99.90;;;;;;4230949;28;20065;-80
2023/08/06 02:48:56;;;;;;;14.40;7.68;;;14.10;99.90;;;;;;4231100;28;20074;-80
2023/08/06 02:50:59;;;;;;;8.52;6.28;;;14.10;99.90;;;;;;4231367;28;20031;-80
2023/08/06 02:52:59;;;;;;;12.73;7.65;;;14.10;99.90;;;;;;4231152;28;20122;-80
2023/08/06 02:55:00;;;;;;;9.88;6.93;;;14.10;99.90;;;;;;4231049;28;20048;-80
2023/08/06 02:57:01;;;;;;;12.20;6.72;;;14.10;99.90;;;;;;4230564;28;20051;-80
2023/08/06 02:59:01;;;;;;;9.90;6.00;;;14.20;99.90;;;;;;4229726;28;20053;-80
2023/08/06 03:01:07;;;;;;;9.75;6.57;;;14.10;99.90;;;;;;4230983;28;20518;-80
2023/08/06 03:03:07;;;;;;;13.20;7.28;;;14.10;99.90;;;;;;4229467;28;20074;-80
2023/08/06 03:05:08;;;;;;;13.18;7.47;;;14.40;99.90;;;;;;4230136;28;20051;-81
2023/08/06 03:07:09;;;;;;;12.20;7.07;;;14.10;99.90;;;;;;4229232;28;20040;-80
2023/08/06 03:09:09;;;;;;;11.43;7.55;;;14.10;99.90;;;;;;4230963;28;20548;-80
2023/08/06 03:11:10;;;;;;;11.50;6.72;;;14.10;99.90;;;;;;4230854;28;20056;-80
2023/08/06 03:13:11;;;;;;;9.70;6.78;;;14.10;99.90;;;;;;4230477;28;20051;-79
2023/08/06 03:15:11;;;;;;;13.02;7.13;;;14.10;99.90;;;;;;4230784;28;20471;-80
2023/08/06 03:17:12;;;;;;;10.20;6.68;;;14.10;99.90;;;;;;4212060;28;20048;-80
2023/08/06 03:19:13;;;;;;;10.90;6.85;;;14.20;99.90;;;;;;4231079;28;20077;-80
2023/08/06 03:21:13;;;;;;;13.95;6.93;;;14.10;99.90;;;;;;4229598;28;20096;-79
2023/08/06 03:23:14;;;;;;;10.80;7.13;;;14.10;99.90;;;;;;4230495;28;20055;-79
2023/08/06 03:25:14;;;;;;;11.27;7.18;;;14.10;99.90;;;;;;4230618;28;20044;-79
2023/08/06 03:27:15;;;;;;;12.10;6.60;;;14.10;99.90;;;;;;4228797;28;20066;-79
2023/08/06 03:29:16;;;;;;;11.63;7.00;;;14.20;99.90;;;;;;4230744;28;20486;-79
2023/08/06 03:31:17;;;;;;;13.05;7.55;;;14.10;99.90;;;;;;4229573;28;20044;-79
2023/08/06 03:33:18;;;;;;;13.80;7.55;;;14.20;99.90;;;;;;4230560;28;20083;-80
2023/08/06 03:35:19;;;;;;;13.55;6.90;;;14.20;99.90;;;;;;4229619;28;20051;-79
2023/08/06 03:37:19;;;;;;;16.58;7.00;;;14.20;99.90;;;;;;4229160;28;20062;-79
2023/08/06 03:39:20;;;;;;;12.55;6.43;;;14.20;99.90;;;;;;4229822;28;20048;-79
2023/08/06 03:41:20;;;;;;;14.68;7.05;;;14.30;99.90;;;;;;4229097;28;20055;-79
2023/08/06 03:43:21;;;;;;;11.57;7.50;;;14.10;99.90;;;;;;4229430;28;20051;-80
2023/08/06 03:45:22;;;;;;;11.40;6.65;;;14.20;99.90;;;;;;4230336;28;20047;-79
2023/08/06 03:47:22;;;;;;;13.18;6.70;;;14.10;99.90;;;;;;4230095;28;20048;-79
2023/08/06 03:49:23;;;;;;;13.32;7.07;;;14.10;99.90;;;;;;4230629;28;20044;-79
2023/08/06 03:51:24;;;;;;;8.77;6.03;;;14.10;99.90;;;;;;4230133;28;20048;-79
2023/08/06 03:53:25;;;;;;;12.57;6.85;;;14.20;99.90;;;;;;4230463;28;20046;-79
2023/08/06 03:55:26;;;;;;;10.48;7.00;;;14.10;99.90;;;;;;4230583;28;20082;-79
2023/08/06 03:57:26;;;;;;;9.60;6.57;;;14.10;99.90;;;;;;4212222;28;20052;-79
2023/08/06 03:59:27;;;;;;;14.90;6.15;;;14.10;99.90;;;;;;4230491;28;20488;-79
2023/08/06 04:01:28;;;;;;;12.55;6.80;;;14.20;99.90;;;;;;4229708;28;20032;-80
2023/08/06 04:03:29;;;;;;;10.90;6.13;;;14.10;99.90;;;;;;4230194;28;20131;-80
2023/08/06 04:05:32;;;;;;;11.45;6.97;;;14.20;99.90;;;;;;4229029;28;20051;-80
2023/08/06 04:07:33;;;;;;;10.15;6.30;;;14.00;99.90;;;;;;4211976;28;20062;-80
2023/08/06 04:09:33;;;;;;;9.60;5.93;;;14.20;99.90;;;;;;4229983;28;20429;-80
2023/08/06 04:11:34;;;;;;;11.35;7.22;;;14.20;99.90;;;;;;4228984;28;20073;-80
2023/08/06 04:13:35;;;;;;;9.60;5.65;;;14.20;99.90;;;;;;4229793;28;20039;-79
2023/08/06 04:15:35;;;;;;;13.05;6.53;;;14.20;99.90;;;;;;4231333;28;20438;-80
2023/08/06 04:17:36;;;;;;;11.20;6.13;;;14.20;99.90;;;;;;4233135;28;20053;-79
2023/08/06 04:19:37;;;;;;;19.50;7.20;;;14.10;99.90;;;;;;4232195;28;20079;-79
2023/08/06 04:21:38;;;;;;;9.10;5.30;;;14.20;99.90;;;;;;4231997;28;20039;-79
2023/08/06 04:23:39;;;;;;;13.57;6.47;;;14.20;99.90;;;;;;4233206;28;20048;-80
2023/08/06 04:25:39;;;;;;;10.05;5.70;;;14.20;99.90;;;;;;4215197;28;20040;-80
2023/08/06 04:27:41;;;;;;;11.45;6.50;;;14.40;99.90;;;;;;4214906;28;20559;-80
2023/08/06 04:29:42;;;;;;;12.00;5.97;;;14.20;99.90;;;;;;4215578;28;20476;-79
2023/08/06 04:31:43;;;;;;;11.65;5.78;;;14.20;99.90;;;;;;4233551;28;20048;-79
2023/08/06 04:33:43;;;;;;;8.90;5.80;;;14.20;99.90;;;;;;4214509;28;20133;-79
2023/08/06 04:35:44;;;;;;;8.93;5.65;;;14.10;99.90;;;;;;4233344;28;20040;-79
2023/08/06 04:37:45;;;;;;;11.55;5.38;;;14.20;99.90;;;;;;4214803;28;20055;-80
2023/08/06 04:39:46;;;;;;;8.27;5.45;;;14.20;99.90;;;;;;4231758;28;20487;-79
2023/08/06 04:41:47;;;;;;;11.02;5.25;;;14.20;99.90;;;;;;4233226;28;20545;-79
2023/08/06 04:43:48;;;;;;;8.60;5.65;;;14.20;99.90;;;;;;4231010;28;20117;-79
2023/08/06 04:45:51;;;;;;;12.27;5.85;;;14.20;99.90;;;;;;4214932;28;20040;-80
2023/08/06 04:47:52;;;;;;;8.10;5.20;;;14.20;99.90;;;;;;4231591;28;20884;-80
2023/08/06 04:49:53;;;;;;;11.63;5.30;;;14.20;99.90;;;;;;4232037;28;20055;-79
2023/08/06 04:51:54;;;;;;;7.38;5.22;;;14.20;99.90;;;;;;4231107;28;20043;-79
2023/08/06 04:53:57;;;;;;;9.30;4.75;;;14.20;99.90;;;;;;4231474;28;20512;-79
2023/08/06 04:55:57;;;;;;;9.15;5.35;;;14.20;99.90;;;;;;4232781;28;20597;-79
2023/08/06 04:57:58;;;;;;;7.95;5.20;;;14.20;99.90;;;;;;4231605;28;20048;-79
2023/08/06 04:59:59;;;;;;;12.57;5.57;;;14.20;99.90;;;;;;4214735;28;20044;-79
2023/08/06 05:01:59;;;;;;;13.52;5.32;;;14.20;99.90;;;;;;4232120;28;20073;-79
2023/08/06 05:04:00;;;;;;;8.32;4.95;;;14.10;99.90;;;;;;4231418;28;20467;-79
2023/08/06 05:06:01;;;;;;;8.77;5.30;;;14.20;99.90;;;;;;4233038;28;20040;-79
2023/08/06 05:08:01;;;;;;;10.98;4.82;;;14.20;99.90;;;;;;4232969;28;20232;-80
2023/08/06 05:10:04;;;;;;;9.77;5.25;;;14.20;99.90;;;;;;4232032;28;20074;-79
2023/08/06 05:12:05;;;;;;;6.20;4.43;;;14.20;99.90;;;;;;4213945;28;20071;-79
2023/08/06 05:14:06;;;;;;;6.97;4.80;;;14.20;99.90;;;;;;4231518;28;20122;-79
2023/08/06 05:16:06;;;;;;;8.48;4.82;;;14.20;99.90;;;;;;4231325;28;20507;-79
2023/08/06 05:18:07;;;;;;;10.02;5.03;;;14.20;99.90;;;;;;4232514;28;20104;-79
2023/08/06 05:20:08;;;;;;;8.18;4.93;;;14.20;99.90;;;;;;4231533;28;20122;-79
2023/08/06 05:22:09;;;;;;;10.73;5.22;;;14.20;99.90;;;;;;4231949;28;20043;-79
2023/08/06 05:24:09;;;;;;;7.75;5.13;;;14.20;99.90;;;;;;4213894;28;20047;-79
2023/08/06 05:26:10;;;;;;;12.80;5.60;;;14.00;99.90;;;;;;4231156;28;20039;-79
2023/08/06 05:28:10;;;;;;;9.18;5.05;;;14.20;99.90;;;;;;4231358;28;20039;-79
2023/08/06 05:30:11;;;;;;;7.75;5.10;;;14.20;99.90;;;;;;4231168;28;20093;-79
2023/08/06 05:32:12;;;;;;;9.73;5.97;;;14.20;99.90;;;;;;4231121;28;20055;-79
2023/08/06 05:34:12;;;;;;;11.05;4.95;;;14.60;99.90;;;;;;4231219;28;20048;-80
2023/08/06 05:36:13;;;;;;;7.15;4.72;;;14.50;99.90;;;;;;4231190;28;20052;-80
2023/08/06 05:38:14;;;;;;;7.53;4.95;;;14.30;99.90;;;;;;4231464;28;20054;-79
2023/08/06 05:40:15;;;;;;;12.23;5.20;;;14.30;99.90;;;;;;4230795;28;20048;-80
2023/08/06 05:42:15;;;;;;;8.48;4.97;;;14.40;99.90;;;;;;4230731;28;20059;-79
2023/08/06 05:44:16;;;;;;;6.63;4.07;;;14.40;99.90;;;;;;4230666;28;20080;-80
2023/08/06 05:46:17;;;;;;;9.77;5.82;;;14.50;99.90;;;;;;4231760;28;20046;-79
2023/08/06 05:48:17;;;;;;;14.68;5.93;;;14.50;99.90;;;;;;4231943;28;20036;-79
2023/08/06 05:50:18;;;;;;;9.00;4.75;;;14.40;99.90;;;;;;4214239;28;20082;-79
2023/08/06 05:52:19;;;;;;;11.63;5.20;;;14.80;99.90;;;;;;4232228;28;20118;-79
2023/08/06 05:54:19;;;;;;;12.32;5.90;;;15.10;99.90;;;;;;4232257;28;20044;-80
2023/08/06 05:56:20;;;;;;;9.50;5.43;;;14.90;99.90;;;;;;4232257;28;20040;-79
2023/08/06 05:58:21;;;;;;;9.80;5.82;;;15.10;99.90;;;;;;4230667;28;20075;-80
2023/08/06 06:00:22;;;;;;;7.95;5.25;;;15.20;99.90;;;;;;4230108;28;20055;-79
2023/08/06 06:02:23;;;;;;;7.68;4.93;;;15.20;99.90;;;;;;4213433;28;20051;-80
2023/08/06 06:04:24;;;;;;;7.75;5.05;;;15.50;99.90;;;;;;4231719;28;20108;-79
2023/08/06 06:06:25;;;;;;;8.10;5.25;;;15.30;99.90;;;;;;4230332;28;20114;-80
2023/08/06 06:08:25;;;;;;;7.30;4.53;;;15.40;99.90;;;;;;4230179;28;20048;-80
2023/08/06 06:10:26;;;;;;;7.65;5.38;;;15.40;99.90;;;;;;4230072;28;20052;-80
2023/08/06 06:12:27;;;;;;;7.60;5.10;;;15.40;99.90;;;;;;4229882;28;20040;-80
2023/08/06 06:14:27;;;;;;;11.32;4.75;;;15.50;99.90;;;;;;4230629;28;20047;-80
2023/08/06 06:16:28;;;;;;;7.63;4.65;;;15.50;99.90;;;;;;4231510;28;20039;-80
2023/08/06 06:18:29;;;;;;;8.93;5.80;;;15.50;99.90;;;;;;4231151;28;20435;-80
2023/08/06 06:20:32;;;;;;;6.78;5.05;;;15.90;99.90;;;;;;4230187;28;20082;-80
2023/08/06 06:22:33;;;;;;;6.32;4.20;;;15.60;99.90;;;;;;4229947;28;20521;-80
2023/08/06 06:24:34;;;;;;;8.35;5.35;;;15.60;99.90;;;;;;4230344;28;20102;-80
2023/08/06 06:26:34;;;;;;;10.48;4.40;;;15.70;99.90;;;;;;4212753;28;20055;-80
2023/08/06 06:28:35;;;;;;;7.50;4.97;;;15.70;99.90;;;;;;4230995;28;20105;-80
2023/08/06 06:30:36;;;;;;;5.72;3.80;;;15.80;99.90;;;;;;4213392;28;20044;-80
2023/08/06 06:32:36;;;;;;;6.72;4.05;;;15.80;99.90;;;;;;4231049;28;20047;-80
2023/08/06 06:34:37;;;;;;;18.63;4.05;;;15.90;99.90;;;;;;4231757;28;20552;-80
2023/08/06 06:36:38;;;;;;;9.50;4.32;;;15.90;99.90;;;;;;4231083;28;20057;-80
2023/08/06 06:38:38;;;;;;;7.57;4.47;;;15.90;99.90;;;;;;4230697;28;20052;-80
2023/08/06 06:40:40;;;;;;;6.00;4.07;;;16.00;99.90;;;;;;4230289;28;20123;-80
2023/08/06 06:42:41;;;;;;;7.65;4.00;;;16.00;99.90;;;;;;4229833;28;20071;-80
2023/08/06 06:44:41;;;;;;;6.43;4.00;;;16.00;99.90;;;;;;4230080;28;20045;-80
2023/08/06 06:46:42;;;;;;;12.57;4.30;;;16.10;99.90;;;;;;4230149;28;20146;-80
2023/08/06 06:48:43;;;;;;;6.50;3.67;;;16.10;99.90;;;;;;4230790;28;20476;-80
2023/08/06 06:50:48;;;;;;;7.75;4.13;;;16.20;99.90;;;;;;4230597;28;20122;-80
2023/08/06 06:52:48;;;;;;;6.43;3.92;;;16.20;99.90;;;;;;4231078;28;20032;-80
2023/08/06 06:54:49;;;;;;;7.70;4.47;;;16.30;99.90;;;;;;4229533;28;20176;-80
2023/08/06 06:56:49;;;;;;;7.65;4.00;;;16.40;99.90;;;;;;4230089;28;20527;-80
2023/08/06 06:58:50;;;;;;;6.43;3.90;;;16.40;99.90;;;;;;4229268;28;20048;-80
2023/08/06 07:00:51;;;;;;;6.35;3.88;;;16.50;99.90;;;;;;4229881;28;20202;-80
2023/08/06 07:02:52;;;;;;;5.35;3.97;;;16.50;99.90;;;;;;4230639;28;20496;-80
2023/08/06 07:04:53;;;;;;;6.22;3.88;;;16.60;99.90;;;;;;4230640;28;20126;-80
2023/08/06 07:06:54;;;;;;;8.25;3.95;;;16.60;99.90;;;;;;4231011;28;20411;-80
2023/08/06 07:08:54;;;;;;;5.90;3.90;;;16.80;99.90;;;;;;4230546;28;20126;-80
2023/08/06 07:11:05;;;;;;;6.45;4.28;;;16.80;99.90;;;;;;4229677;28;20079;-80
2023/08/06 07:13:06;;;;;;;6.45;3.70;;;17.00;99.90;;;;;;4228843;28;20043;-80
2023/08/06 07:15:07;;;;;;;7.10;4.35;;;17.00;99.90;;;;;;4229630;28;20483;-80
2023/08/06 07:17:07;;;;;;;5.97;3.45;;;17.10;99.90;;;;;;4229448;28;20114;-80
2023/08/06 07:19:08;;;;;;;7.72;3.85;;;17.10;99.90;;;;;;4229538;28;20054;-80
2023/08/06 07:21:09;;;;;;;6.18;3.88;;;17.20;99.90;;;;;;4229661;28;20043;-80
2023/08/06 07:23:09;;;;;;;5.95;3.42;;;17.20;99.90;;;;;;4230492;28;20471;-80
2023/08/06 07:25:10;;;;;;;6.63;3.40;;;17.20;99.90;;;;;;4230293;28;20480;-80
2023/08/06 07:27:11;;;;;;;6.05;2.85;;;17.30;99.90;;;;;;4211873;28;20040;-80
2023/08/06 07:29:11;;;;;;;7.28;3.28;;;17.30;99.90;;;;;;4228857;28;20062;-80
2023/08/06 07:31:12;;;;;;;5.60;3.38;;;17.30;99.90;;;;;;4230695;28;20516;-80
2023/08/06 07:33:13;;;;;;;5.18;3.40;;;17.40;99.90;;;;;;4230525;28;20394;-80
2023/08/06 07:35:14;;;;;;;4.93;3.47;;;17.40;99.90;;;;;;4229304;28;20090;-80
2023/08/06 07:37:15;;;;;;;4.75;3.47;;;17.50;99.90;;;;;;4228734;28;20047;-80
2023/08/06 07:39:16;;;;;;;5.50;3.20;;;17.60;99.90;;;;;;4229144;28;20585;-80
2023/08/06 07:41:17;;;;;;;5.82;3.55;;;17.70;99.90;;;;;;4230549;28;20133;-80
2023/08/06 07:43:18;;;;;;;4.25;3.05;;;17.90;99.90;;;;;;4212183;28;20044;-80
2023/08/06 07:45:19;;;;;;;5.88;3.17;;;18.20;99.90;;;;;;4230100;28;20050;-80
2023/08/06 07:47:20;;;;;;;4.68;3.35;;;18.40;99.90;;;;;;4228948;28;20060;-80
2023/08/06 07:49:21;;;;;;;4.13;3.20;;;18.60;99.90;;;;;;4229584;28;20051;-80
2023/08/06 07:51:22;;;;;;;8.57;3.13;;;18.80;99.90;;;;;;4234371;28;20165;-80
2023/08/06 07:53:26;;;;;;;9.40;4.43;;;18.90;99.90;;;;;;4232338;28;20047;-80
2023/08/06 07:55:27;;;;;;;6.28;3.40;;;18.90;99.90;;;;;;4233114;28;20090;-80
2023/08/06 07:57:27;;;;;;;6.03;3.20;;;18.90;99.90;;;;;;4233947;28;20130;-80
2023/08/06 07:59:28;;;;;;;6.78;3.05;;;18.90;99.90;;;;;;4232484;28;20075;-80
2023/08/06 08:01:30;;;;;;;5.70;3.20;;;18.80;99.90;;;;;;4232610;28;20043;-80
2023/08/06 08:03:30;;;;;;;4.90;2.58;;;18.80;99.90;;;;;;4232289;28;20047;-80
2023/08/06 08:05:31;;;;;;;6.05;3.28;;;18.80;99.90;;;;;;4215238;28;20119;-80
2023/08/06 08:07:31;;;;;;;4.15;3.03;;;19.00;99.90;;;;;;4233335;28;20467;-80
2023/08/06 08:09:34;;;;;;;8.68;3.65;;;19.00;99.90;;;;;;4233618;28;20157;-80
2023/08/06 08:11:34;;;;;;;5.68;3.40;;;19.20;99.90;;;;;;4233308;28;20059;-80
2023/08/06 08:13:35;;;;;;;7.55;3.25;;;19.20;99.90;;;;;;4232233;28;20077;-80
2023/08/06 08:15:36;;;;;;;4.72;3.30;;;19.30;99.90;;;;;;4232896;28;20407;-80
2023/08/06 08:17:36;;;;;;;6.38;3.42;;;19.40;99.90;;;;;;4233612;28;20044;-80
2023/08/06 08:19:37;;;;;;;7.40;4.00;;;19.50;99.90;;;;;;4232438;28;20039;-80
2023/08/06 08:21:38;;;;;;;4.78;3.47;;;19.50;99.90;;;;;;4233426;28;20096;-80
2023/08/06 08:23:39;;;;;;;5.25;3.50;;;19.50;99.90;;;;;;4232426;28;20119;-80
2023/08/06 08:25:39;;;;;;;6.60;3.60;;;19.70;99.90;;;;;;4233869;28;20079;-80
2023/08/06 08:27:40;;;;;;;6.35;3.47;;;19.90;99.90;;;;;;4231761;28;20082;-80
2023/08/06 08:29:41;;;;;;;9.13;3.65;;;20.10;99.90;;;;;;4233466;28;20040;-80
2023/08/06 08:31:41;;;;;;;6.78;3.28;;;20.30;99.90;;;;;;4232548;28;20175;-80
2023/08/06 08:33:42;;;;;;;4.10;3.00;;;20.40;99.90;;;;;;4215006;28;20058;-80
2023/08/06 08:35:43;;;;;;;4.55;3.50;;;20.60;99.90;;;;;;4214804;28;20082;-80
2023/08/06 08:37:43;;;;;;;4.82;3.03;;;20.70;99.90;;;;;;4233104;28;20042;-80
2023/08/06 08:39:44;;;;;;;4.85;2.85;;;20.80;99.90;;;;;;4232028;28;20557;-80
2023/08/06 08:41:45;;;;;;;3.45;2.60;;;20.80;99.90;;;;;;4215031;28;20047;-80
2023/08/06 08:43:49;;;;;;;5.53;2.70;;;20.90;99.90;;;;;;4232673;28;20483;-80
2023/08/06 08:45:51;;;;;;;2.90;2.50;;;20.80;99.90;;;;;;4231979;28;20051;-80
2023/08/06 08:47:52;;;;;;;4.95;2.30;;;20.80;99.90;;;;;;4231326;28;20090;-80
2023/08/06 08:49:55;;;;;;;4.07;2.70;;;20.80;99.90;;;;;;4233298;28;20047;-80
2023/08/06 08:51:56;;;;;;;6.50;2.60;;;20.80;99.90;;;;;;4232022;28;20352;-80
2023/08/06 08:53:57;;;;;;;4.15;2.30;;;20.90;99.90;;;;;;4231539;28;20122;-80
2023/08/06 08:55:58;;;;;;;2.97;2.05;;;21.00;99.90;;;;;;4231704;28;20372;-80
2023/08/06 08:57:59;;;;;;;4.60;2.20;;;21.10;99.90;;;;;;4238488;28;20077;-80
2023/08/06 09:00:00;;;;;;;3.38;2.28;;;21.20;99.90;;;;;;4250164;28;20106;-79
2023/08/06 09:02:03;;;;;;;3.67;2.03;;;21.20;99.90;;;;;;4240575;28;20063;-80
2023/08/06 09:04:06;;;;;;;4.55;2.63;;;21.30;99.90;;;;;;4232767;28;20079;-80
2023/08/06 09:06:10;;;;;;;6.43;2.20;;;21.40;99.90;;;;;;4232642;28;20043;-80
2023/08/06 09:08:15;;;;;;;4.38;1.65;;;21.70;99.90;;;;;;4231634;28;20544;-80
2023/08/06 09:10:18;;;;;;;4.13;1.80;;;21.80;99.90;;;;;;4231061;28;20120;-80
2023/08/06 09:12:19;;;;;;;2.60;1.60;;;21.90;99.90;;;;;;4231308;28;20051;-80
2023/08/06 09:14:20;;;;;;;2.65;1.98;;;22.10;99.90;;;;;;4231315;28;20569;-80
2023/08/06 09:16:21;;;;;;;7.15;1.65;;;22.20;99.90;;;;;;4231437;28;20047;-80
2023/08/06 09:18:29;;;;;;;1.75;1.40;;;22.30;99.90;;;;;;4230720;28;20047;-80
2023/08/06 09:20:33;;;;;;;7.75;1.35;;;22.40;99.90;;;;;;4231220;28;20035;-80
2023/08/06 09:22:35;;;;;;;3.15;1.50;;;22.50;99.90;;;;;;4231042;28;20556;-80
2023/08/06 09:24:39;;;;;;;2.22;1.80;;;22.60;99.90;;;;;;4231446;28;20043;-80
2023/08/06 09:26:41;;;;;;;1.75;1.25;;;22.70;99.90;;;;;;4230825;28;20100;-80
2023/08/06 09:28:43;;;;;;;3.22;1.50;;;22.80;99.90;;;;;;4231354;28;20051;-80
2023/08/06 09:30:47;;;;;;;2.22;1.35;;;23.00;99.90;;;;;;4231066;28;20542;-80
2023/08/06 09:32:51;;;;;;;3.92;1.55;;;23.10;99.90;;;;;;4230934;28;20044;-80
2023/08/06 09:34:56;;;;;;;1.88;1.25;;;23.20;99.90;;;;;;4231762;28;20047;-80
2023/08/06 09:36:57;;;;;;;1.98;1.38;;;23.30;99.90;;;;;;4231325;28;20043;-80
2023/08/06 09:38:57;;;;;;;2.03;1.45;;;23.30;99.90;;;;;;4230657;28;20051;-80
2023/08/06 09:40:58;;;;;;;2.17;1.33;;;23.40;99.90;;;;;;4232471;28;20096;-80
2023/08/06 09:42:59;;;;;;;1.60;1.35;;;23.40;99.90;;;;;;4230811;28;20094;-80
2023/08/06 09:45:06;;;;;;;3.67;1.30;;;23.40;99.90;;;;;;4232190;28;20552;-80
2023/08/06 09:47:07;;;;;;;1.65;0.82;;;23.40;99.90;;;;;;4232249;28;20052;-80
2023/08/06 09:49:09;;;;;;;1.60;1.08;;;23.40;99.90;;;;;;4213885;28;20150;-80
2023/08/06 09:51:13;;;;;;;1.55;1.02;;;23.50;99.90;;;;;;4231913;27;20441;-80
2023/08/06 09:53:14;;;;;;;2.33;1.45;;;23.50;99.90;;;;;;4231447;28;20092;-80
2023/08/06 09:55:14;;;;;;;1.77;1.00;;;23.60;99.90;;;;;;4232636;28;20122;-80
2023/08/06 09:57:15;;;;;;;2.45;1.00;;;23.60;99.90;;;;;;4231407;28;20075;-80
2023/08/06 09:59:19;;;;;;;1.55;1.08;;;23.60;99.90;;;;;;4232390;28;20040;-81
2023/08/06 10:01:21;;;;;;;4.55;1.05;;;23.60;99.90;;;;;;4231242;28;20058;-80
2023/08/06 10:03:23;;;;;;;5.75;1.30;;;23.70;99.90;;;;;;4230669;28;20497;-80
2023/08/06 10:05:24;;;;;;;6.28;1.90;;;23.80;99.90;;;;;;4232430;28;20058;-80
2023/08/06 10:07:25;;;;;;;3.65;1.20;;;23.70;99.90;;;;;;4213761;28;20048;-80
2023/08/06 10:09:26;;;;;;;3.47;1.20;;;23.80;99.90;;;;;;4230060;28;20053;-80
2023/08/06 10:11:28;;;;;;;4.30;1.08;;;23.90;99.90;;;;;;4231816;28;20047;-80
2023/08/06 10:13:30;;;;;;;1.42;1.00;;;24.00;99.90;;;;;;4213666;28;20500;-80
2023/08/06 10:15:32;;;;;;;1.25;0.88;;;24.10;99.90;;;;;;4233146;28;20480;-80
2023/08/06 10:17:34;;;;;;;16.77;1.30;;;24.20;99.90;;;;;;4223463;28;20024;-80
2023/08/06 10:19:35;;;;;;;1.67;1.08;;;24.10;99.90;;;;;;4249010;28;20103;-80
2023/08/06 10:21:37;;;;;;;1.92;1.15;;;24.60;99.90;;;;;;4236999;28;20492;-80
2023/08/06 10:23:40;;;;;;;2.20;1.40;;;24.80;99.90;;;;;;4229648;28;20538;-80
2023/08/06 10:25:42;;;;;;;1.13;1.00;;;24.90;99.90;;;;;;4231562;28;20046;-80
2023/08/06 10:27:48;;;;;;;3.35;1.10;;;24.80;99.90;;;;;;4231107;28;20093;-80
2023/08/06 10:29:50;;;;;;;4.10;1.05;;;24.90;99.90;;;;;;4230647;28;20108;-80